sensor_id;sensor_type;location;lat;lon;timestamp;P1;durP1;ratioP1;P2;durP2;ratioP2
21862;SDS011;11096;51.338;12.524;2023-05-24T00:00:02;12.10;;;2.42;;
21862;SDS011;11096;51.338;12.524;2023-05-24T00:02:30;9.85;;;2.03;;
21862;SDS011;11096;51.338;12.524;2023-05-24T00:04:55;9.73;;;2.60;;
21862;SDS011;11096;51.338;12.524;2023-05-24T00:07:24;8.18;;;2.28;;
21862;SDS011;11096;51.338;12.524;2023-05-24T00:09:50;8.23;;;2.47;;
21862;SDS011;11096;51.338;12.524;2023-05-24T00:12:15;14.18;;;2.97;;
21862;SDS011;11096;51.338;12.524;2023-05-24T00:14:41;9.82;;;1.92;;
21862;SDS011;11096;51.338;12.524;2023-05-24T00:17:06;10.52;;;2.60;;
21862;SDS011;11096;51.338;12.524;2023-05-24T00:19:32;11.27;;;2.35;;
21862;SDS011;11096;51.338;12.524;2023-05-24T00:21:57;8.95;;;2.10;;
21862;SDS011;11096;51.338;12.524;2023-05-24T00:24:22;12.02;;;2.53;;
21862;SDS011;11096;51.338;12.524;2023-05-24T00:26:48;8.52;;;1.98;;
21862;SDS011;11096;51.338;12.524;2023-05-24T00:29:13;10.73;;;3.20;;
21862;SDS011;11096;51.338;12.524;2023-05-24T00:31:38;8.45;;;2.47;;
21862;SDS011;11096;51.338;12.524;2023-05-24T00:34:04;10.35;;;2.38;;
21862;SDS011;11096;51.338;12.524;2023-05-24T00:36:30;13.45;;;2.45;;
21862;SDS011;11096;51.338;12.524;2023-05-24T00:38:55;8.80;;;2.28;;
21862;SDS011;11096;51.338;12.524;2023-05-24T00:41:21;11.63;;;2.40;;
21862;SDS011;11096;51.338;12.524;2023-05-24T00:43:46;19.02;;;2.85;;
21862;SDS011;11096;51.338;12.524;2023-05-24T00:48:42;12.23;;;3.00;;
21862;SDS011;11096;51.338;12.524;2023-05-24T00:51:08;11.20;;;2.70;;
21862;SDS011;11096;51.338;12.524;2023-05-24T00:53:35;12.75;;;2.20;;
21862;SDS011;11096;51.338;12.524;2023-05-24T00:56:01;10.50;;;2.10;;
21862;SDS011;11096;51.338;12.524;2023-05-24T00:58:28;6.88;;;2.60;;
21862;SDS011;11096;51.338;12.524;2023-05-24T01:00:58;13.82;;;2.25;;
21862;SDS011;11096;51.338;12.524;2023-05-24T01:03:25;17.60;;;2.28;;
21862;SDS011;11096;51.338;12.524;2023-05-24T01:05:53;7.60;;;1.73;;
21862;SDS011;11096;51.338;12.524;2023-05-24T01:08:36;9.55;;;1.95;;
21862;SDS011;11096;51.338;12.524;2023-05-24T01:16:52;9.20;;;2.15;;
21862;SDS011;11096;51.338;12.524;2023-05-24T01:22:36;11.88;;;2.83;;
21862;SDS011;11096;51.338;12.524;2023-05-24T01:25:16;9.75;;;2.05;;
21862;SDS011;11096;51.338;12.524;2023-05-24T01:27:46;9.15;;;2.10;;
21862;SDS011;11096;51.338;12.524;2023-05-24T01:30:13;11.77;;;2.33;;
21862;SDS011;11096;51.338;12.524;2023-05-24T01:32:39;8.50;;;2.28;;
21862;SDS011;11096;51.338;12.524;2023-05-24T01:35:05;8.55;;;2.53;;
21862;SDS011;11096;51.338;12.524;2023-05-24T01:37:31;10.38;;;2.83;;
21862;SDS011;11096;51.338;12.524;2023-05-24T01:39:56;11.65;;;2.47;;
21862;SDS011;11096;51.338;12.524;2023-05-24T01:42:32;9.68;;;1.83;;
21862;SDS011;11096;51.338;12.524;2023-05-24T01:50:36;13.90;;;2.53;;
21862;SDS011;11096;51.338;12.524;2023-05-24T01:53:11;10.30;;;2.30;;
21862;SDS011;11096;51.338;12.524;2023-05-24T01:55:38;11.05;;;2.10;;
21862;SDS011;11096;51.338;12.524;2023-05-24T01:58:06;13.70;;;2.20;;
21862;SDS011;11096;51.338;12.524;2023-05-24T02:00:33;9.27;;;2.05;;
21862;SDS011;11096;51.338;12.524;2023-05-24T02:02:59;11.68;;;2.38;;
21862;SDS011;11096;51.338;12.524;2023-05-24T02:05:27;10.60;;;2.88;;
21862;SDS011;11096;51.338;12.524;2023-05-24T02:07:52;10.02;;;2.20;;
21862;SDS011;11096;51.338;12.524;2023-05-24T02:10:17;12.88;;;2.95;;
21862;SDS011;11096;51.338;12.524;2023-05-24T02:12:43;5.22;;;1.77;;
21862;SDS011;11096;51.338;12.524;2023-05-24T02:15:08;13.63;;;2.60;;
21862;SDS011;11096;51.338;12.524;2023-05-24T02:17:34;9.15;;;2.10;;
21862;SDS011;11096;51.338;12.524;2023-05-24T02:20:00;6.88;;;2.53;;
21862;SDS011;11096;51.338;12.524;2023-05-24T02:22:26;11.15;;;2.28;;
21862;SDS011;11096;51.338;12.524;2023-05-24T02:24:52;8.02;;;1.80;;
21862;SDS011;11096;51.338;12.524;2023-05-24T02:27:18;9.65;;;2.25;;
21862;SDS011;11096;51.338;12.524;2023-05-24T02:29:43;12.05;;;2.63;;
21862;SDS011;11096;51.338;12.524;2023-05-24T02:32:09;13.35;;;2.25;;
21862;SDS011;11096;51.338;12.524;2023-05-24T02:34:34;13.05;;;2.25;;
21862;SDS011;11096;51.338;12.524;2023-05-24T02:37:00;9.75;;;1.83;;
21862;SDS011;11096;51.338;12.524;2023-05-24T02:39:26;9.65;;;2.28;;
21862;SDS011;11096;51.338;12.524;2023-05-24T02:41:51;11.18;;;2.15;;
21862;SDS011;11096;51.338;12.524;2023-05-24T02:44:17;12.80;;;2.80;;
21862;SDS011;11096;51.338;12.524;2023-05-24T02:46:42;9.32;;;2.10;;
21862;SDS011;11096;51.338;12.524;2023-05-24T02:49:08;10.40;;;2.05;;
21862;SDS011;11096;51.338;12.524;2023-05-24T02:51:34;9.80;;;2.50;;
21862;SDS011;11096;51.338;12.524;2023-05-24T02:54:01;12.90;;;2.40;;
21862;SDS011;11096;51.338;12.524;2023-05-24T02:56:27;12.30;;;2.38;;
21862;SDS011;11096;51.338;12.524;2023-05-24T02:58:53;9.68;;;2.63;;
21862;SDS011;11096;51.338;12.524;2023-05-24T03:01:19;6.80;;;1.85;;
21862;SDS011;11096;51.338;12.524;2023-05-24T03:03:46;7.72;;;2.58;;
21862;SDS011;11096;51.338;12.524;2023-05-24T03:06:11;11.93;;;2.03;;
21862;SDS011;11096;51.338;12.524;2023-05-24T03:08:38;23.23;;;2.55;;
21862;SDS011;11096;51.338;12.524;2023-05-24T03:11:03;9.40;;;2.25;;
21862;SDS011;11096;51.338;12.524;2023-05-24T03:13:29;8.95;;;2.05;;
21862;SDS011;11096;51.338;12.524;2023-05-24T03:15:55;20.52;;;2.75;;
21862;SDS011;11096;51.338;12.524;2023-05-24T03:18:20;15.30;;;2.80;;
21862;SDS011;11096;51.338;12.524;2023-05-24T03:20:46;11.90;;;2.42;;
21862;SDS011;11096;51.338;12.524;2023-05-24T03:23:11;18.38;;;2.72;;
21862;SDS011;11096;51.338;12.524;2023-05-24T03:25:37;10.63;;;2.55;;
21862;SDS011;11096;51.338;12.524;2023-05-24T03:28:02;18.27;;;2.55;;
21862;SDS011;11096;51.338;12.524;2023-05-24T03:30:28;17.13;;;3.47;;
21862;SDS011;11096;51.338;12.524;2023-05-24T03:32:53;17.17;;;2.75;;
21862;SDS011;11096;51.338;12.524;2023-05-24T03:35:19;22.20;;;3.05;;
21862;SDS011;11096;51.338;12.524;2023-05-24T03:37:45;17.05;;;2.72;;
21862;SDS011;11096;51.338;12.524;2023-05-24T03:40:10;9.57;;;2.30;;
21862;SDS011;11096;51.338;12.524;2023-05-24T03:42:36;21.63;;;2.67;;
21862;SDS011;11096;51.338;12.524;2023-05-24T03:45:02;7.30;;;2.15;;
21862;SDS011;11096;51.338;12.524;2023-05-24T03:47:29;10.00;;;2.45;;
21862;SDS011;11096;51.338;12.524;2023-05-24T03:49:54;11.93;;;2.50;;
21862;SDS011;11096;51.338;12.524;2023-05-24T03:52:20;16.42;;;3.30;;
21862;SDS011;11096;51.338;12.524;2023-05-24T03:54:45;12.15;;;2.17;;
21862;SDS011;11096;51.338;12.524;2023-05-24T03:57:10;10.93;;;2.60;;
21862;SDS011;11096;51.338;12.524;2023-05-24T03:59:36;15.02;;;2.60;;
21862;SDS011;11096;51.338;12.524;2023-05-24T04:02:01;11.82;;;2.42;;
21862;SDS011;11096;51.338;12.524;2023-05-24T04:04:27;17.02;;;2.92;;
21862;SDS011;11096;51.338;12.524;2023-05-24T04:06:52;16.65;;;2.75;;
21862;SDS011;11096;51.338;12.524;2023-05-24T04:09:18;11.13;;;2.15;;
21862;SDS011;11096;51.338;12.524;2023-05-24T04:11:43;11.60;;;2.85;;
21862;SDS011;11096;51.338;12.524;2023-05-24T04:14:08;19.58;;;2.55;;
21862;SDS011;11096;51.338;12.524;2023-05-24T04:16:34;17.45;;;3.15;;
21862;SDS011;11096;51.338;12.524;2023-05-24T04:19:00;15.55;;;2.83;;
21862;SDS011;11096;51.338;12.524;2023-05-24T04:21:27;15.43;;;2.40;;
21862;SDS011;11096;51.338;12.524;2023-05-24T04:23:53;17.63;;;2.92;;
21862;SDS011;11096;51.338;12.524;2023-05-24T04:26:19;8.82;;;2.67;;
21862;SDS011;11096;51.338;12.524;2023-05-24T04:28:45;16.80;;;3.00;;
21862;SDS011;11096;51.338;12.524;2023-05-24T04:31:12;16.67;;;3.13;;
21862;SDS011;11096;51.338;12.524;2023-05-24T04:33:39;15.38;;;3.03;;
21862;SDS011;11096;51.338;12.524;2023-05-24T04:36:05;15.45;;;3.00;;
21862;SDS011;11096;51.338;12.524;2023-05-24T04:38:32;9.32;;;2.55;;
21862;SDS011;11096;51.338;12.524;2023-05-24T04:40:58;18.15;;;3.03;;
21862;SDS011;11096;51.338;12.524;2023-05-24T04:43:24;17.05;;;3.10;;
21862;SDS011;11096;51.338;12.524;2023-05-24T04:45:53;16.27;;;3.45;;
21862;SDS011;11096;51.338;12.524;2023-05-24T04:48:19;17.08;;;3.03;;
21862;SDS011;11096;51.338;12.524;2023-05-24T04:50:48;14.13;;;2.58;;
21862;SDS011;11096;51.338;12.524;2023-05-24T04:53:17;24.02;;;3.92;;
21862;SDS011;11096;51.338;12.524;2023-05-24T04:55:43;10.65;;;2.85;;
21862;SDS011;11096;51.338;12.524;2023-05-24T04:58:08;13.02;;;2.88;;
21862;SDS011;11096;51.338;12.524;2023-05-24T05:00:33;11.63;;;2.50;;
21862;SDS011;11096;51.338;12.524;2023-05-24T05:02:59;23.58;;;3.60;;
21862;SDS011;11096;51.338;12.524;2023-05-24T05:05:24;17.40;;;3.38;;
21862;SDS011;11096;51.338;12.524;2023-05-24T05:07:50;11.48;;;2.92;;
21862;SDS011;11096;51.338;12.524;2023-05-24T05:10:15;19.83;;;3.60;;
21862;SDS011;11096;51.338;12.524;2023-05-24T05:12:41;13.32;;;3.05;;
21862;SDS011;11096;51.338;12.524;2023-05-24T05:15:06;17.33;;;3.00;;
21862;SDS011;11096;51.338;12.524;2023-05-24T05:17:32;14.73;;;3.08;;
21862;SDS011;11096;51.338;12.524;2023-05-24T05:19:57;13.60;;;2.72;;
21862;SDS011;11096;51.338;12.524;2023-05-24T05:22:23;12.98;;;2.97;;
21862;SDS011;11096;51.338;12.524;2023-05-24T05:24:48;23.25;;;4.70;;
21862;SDS011;11096;51.338;12.524;2023-05-24T05:27:14;16.85;;;3.58;;
21862;SDS011;11096;51.338;12.524;2023-05-24T05:29:39;16.58;;;3.40;;
21862;SDS011;11096;51.338;12.524;2023-05-24T05:32:05;14.70;;;3.35;;
21862;SDS011;11096;51.338;12.524;2023-05-24T05:34:31;16.95;;;3.47;;
21862;SDS011;11096;51.338;12.524;2023-05-24T05:36:56;19.65;;;3.50;;
21862;SDS011;11096;51.338;12.524;2023-05-24T05:39:21;13.48;;;3.42;;
21862;SDS011;11096;51.338;12.524;2023-05-24T05:41:47;14.48;;;2.65;;
21862;SDS011;11096;51.338;12.524;2023-05-24T05:44:12;17.23;;;3.38;;
21862;SDS011;11096;51.338;12.524;2023-05-24T05:46:38;19.15;;;3.50;;
21862;SDS011;11096;51.338;12.524;2023-05-24T05:49:03;15.43;;;3.53;;
21862;SDS011;11096;51.338;12.524;2023-05-24T05:51:30;11.30;;;2.85;;
21862;SDS011;11096;51.338;12.524;2023-05-24T05:53:55;14.77;;;3.83;;
21862;SDS011;11096;51.338;12.524;2023-05-24T05:56:21;11.85;;;2.63;;
21862;SDS011;11096;51.338;12.524;2023-05-24T05:58:46;15.98;;;3.35;;
21862;SDS011;11096;51.338;12.524;2023-05-24T06:01:12;17.77;;;3.55;;
21862;SDS011;11096;51.338;12.524;2023-05-24T06:03:38;14.98;;;3.03;;
21862;SDS011;11096;51.338;12.524;2023-05-24T06:06:03;13.38;;;2.75;;
21862;SDS011;11096;51.338;12.524;2023-05-24T06:08:29;13.38;;;3.22;;
21862;SDS011;11096;51.338;12.524;2023-05-24T06:10:58;20.95;;;3.58;;
21862;SDS011;11096;51.338;12.524;2023-05-24T06:13:24;21.65;;;4.15;;
21862;SDS011;11096;51.338;12.524;2023-05-24T06:15:52;10.20;;;2.88;;
21862;SDS011;11096;51.338;12.524;2023-05-24T06:18:20;18.35;;;3.60;;
21862;SDS011;11096;51.338;12.524;2023-05-24T06:20:46;20.35;;;3.70;;
21862;SDS011;11096;51.338;12.524;2023-05-24T06:23:11;15.95;;;3.20;;
21862;SDS011;11096;51.338;12.524;2023-05-24T06:25:37;23.98;;;5.28;;
21862;SDS011;11096;51.338;12.524;2023-05-24T06:28:03;13.07;;;3.55;;
21862;SDS011;11096;51.338;12.524;2023-05-24T06:30:28;17.95;;;3.75;;
21862;SDS011;11096;51.338;12.524;2023-05-24T06:32:54;14.40;;;3.17;;
21862;SDS011;11096;51.338;12.524;2023-05-24T06:35:20;15.48;;;3.28;;
21862;SDS011;11096;51.338;12.524;2023-05-24T06:37:46;16.83;;;3.58;;
21862;SDS011;11096;51.338;12.524;2023-05-24T06:40:11;11.98;;;3.13;;
21862;SDS011;11096;51.338;12.524;2023-05-24T06:42:37;18.75;;;3.35;;
21862;SDS011;11096;51.338;12.524;2023-05-24T06:45:03;26.30;;;3.50;;
21862;SDS011;11096;51.338;12.524;2023-05-24T06:47:29;15.32;;;3.35;;
21862;SDS011;11096;51.338;12.524;2023-05-24T06:49:56;17.17;;;3.28;;
21862;SDS011;11096;51.338;12.524;2023-05-24T06:52:22;13.38;;;3.33;;
21862;SDS011;11096;51.338;12.524;2023-05-24T06:54:48;16.67;;;3.65;;
21862;SDS011;11096;51.338;12.524;2023-05-24T06:57:13;15.63;;;3.38;;
21862;SDS011;11096;51.338;12.524;2023-05-24T06:59:39;16.27;;;3.22;;
21862;SDS011;11096;51.338;12.524;2023-05-24T07:02:05;15.43;;;3.08;;
21862;SDS011;11096;51.338;12.524;2023-05-24T07:04:30;15.40;;;3.30;;
21862;SDS011;11096;51.338;12.524;2023-05-24T07:06:56;15.52;;;3.05;;
21862;SDS011;11096;51.338;12.524;2023-05-24T07:09:22;13.98;;;3.05;;
21862;SDS011;11096;51.338;12.524;2023-05-24T07:11:47;14.40;;;3.50;;
21862;SDS011;11096;51.338;12.524;2023-05-24T07:14:13;16.83;;;3.40;;
21862;SDS011;11096;51.338;12.524;2023-05-24T07:16:39;17.27;;;3.28;;
21862;SDS011;11096;51.338;12.524;2023-05-24T07:19:04;15.65;;;3.28;;
21862;SDS011;11096;51.338;12.524;2023-05-24T07:21:30;14.07;;;3.10;;
21862;SDS011;11096;51.338;12.524;2023-05-24T07:23:55;12.38;;;3.65;;
21862;SDS011;11096;51.338;12.524;2023-05-24T07:26:21;18.27;;;3.58;;
21862;SDS011;11096;51.338;12.524;2023-05-24T07:28:47;17.52;;;3.22;;
21862;SDS011;11096;51.338;12.524;2023-05-24T07:31:13;17.30;;;3.00;;
21862;SDS011;11096;51.338;12.524;2023-05-24T07:33:38;15.95;;;3.38;;
21862;SDS011;11096;51.338;12.524;2023-05-24T07:36:04;18.08;;;3.95;;
21862;SDS011;11096;51.338;12.524;2023-05-24T07:38:30;11.45;;;3.42;;
21862;SDS011;11096;51.338;12.524;2023-05-24T07:40:59;19.17;;;3.17;;
21862;SDS011;11096;51.338;12.524;2023-05-24T07:43:26;18.38;;;3.25;;
21862;SDS011;11096;51.338;12.524;2023-05-24T07:45:51;17.70;;;3.72;;
21862;SDS011;11096;51.338;12.524;2023-05-24T07:48:18;13.85;;;3.03;;
21862;SDS011;11096;51.338;12.524;2023-05-24T07:50:44;13.68;;;2.60;;
21862;SDS011;11096;51.338;12.524;2023-05-24T07:53:12;16.08;;;2.97;;
21862;SDS011;11096;51.338;12.524;2023-05-24T07:55:38;12.90;;;3.08;;
21862;SDS011;11096;51.338;12.524;2023-05-24T07:58:04;14.82;;;3.58;;
21862;SDS011;11096;51.338;12.524;2023-05-24T08:00:30;14.55;;;3.38;;
21862;SDS011;11096;51.338;12.524;2023-05-24T08:02:57;13.13;;;3.05;;
21862;SDS011;11096;51.338;12.524;2023-05-24T08:05:22;13.63;;;3.45;;
21862;SDS011;11096;51.338;12.524;2023-05-24T08:07:48;13.23;;;3.28;;
21862;SDS011;11096;51.338;12.524;2023-05-24T08:10:13;13.68;;;2.67;;
21862;SDS011;11096;51.338;12.524;2023-05-24T08:12:38;20.58;;;3.40;;
21862;SDS011;11096;51.338;12.524;2023-05-24T08:15:04;17.70;;;3.33;;
21862;SDS011;11096;51.338;12.524;2023-05-24T08:17:30;16.00;;;3.45;;
21862;SDS011;11096;51.338;12.524;2023-05-24T08:19:56;16.85;;;4.63;;
21862;SDS011;11096;51.338;12.524;2023-05-24T08:22:21;19.63;;;3.90;;
21862;SDS011;11096;51.338;12.524;2023-05-24T08:24:47;18.00;;;3.78;;
21862;SDS011;11096;51.338;12.524;2023-05-24T08:27:12;16.40;;;3.35;;
21862;SDS011;11096;51.338;12.524;2023-05-24T08:29:38;15.57;;;2.75;;
21862;SDS011;11096;51.338;12.524;2023-05-24T08:32:04;14.18;;;3.40;;
21862;SDS011;11096;51.338;12.524;2023-05-24T08:34:33;11.60;;;2.40;;
21862;SDS011;11096;51.338;12.524;2023-05-24T08:37:02;13.65;;;3.13;;
21862;SDS011;11096;51.338;12.524;2023-05-24T08:39:28;11.23;;;3.40;;
21862;SDS011;11096;51.338;12.524;2023-05-24T08:41:54;15.15;;;3.35;;
21862;SDS011;11096;51.338;12.524;2023-05-24T08:44:20;13.80;;;2.58;;
21862;SDS011;11096;51.338;12.524;2023-05-24T08:46:47;13.30;;;3.63;;
21862;SDS011;11096;51.338;12.524;2023-05-24T08:49:13;17.25;;;3.70;;
21862;SDS011;11096;51.338;12.524;2023-05-24T08:51:40;14.07;;;3.58;;
21862;SDS011;11096;51.338;12.524;2023-05-24T08:54:07;13.48;;;3.30;;
21862;SDS011;11096;51.338;12.524;2023-05-24T08:56:36;17.52;;;3.20;;
21862;SDS011;11096;51.338;12.524;2023-05-24T08:59:03;13.80;;;3.75;;
21862;SDS011;11096;51.338;12.524;2023-05-24T09:01:29;18.70;;;3.70;;
21862;SDS011;11096;51.338;12.524;2023-05-24T09:03:56;18.60;;;4.13;;
21862;SDS011;11096;51.338;12.524;2023-05-24T09:06:24;19.02;;;3.50;;
21862;SDS011;11096;51.338;12.524;2023-05-24T09:08:50;9.55;;;3.03;;
21862;SDS011;11096;51.338;12.524;2023-05-24T09:11:18;13.02;;;3.20;;
21862;SDS011;11096;51.338;12.524;2023-05-24T09:13:45;14.73;;;3.28;;
21862;SDS011;11096;51.338;12.524;2023-05-24T09:16:12;12.43;;;3.17;;
21862;SDS011;11096;51.338;12.524;2023-05-24T09:18:39;18.73;;;3.38;;
21862;SDS011;11096;51.338;12.524;2023-05-24T09:21:06;10.95;;;3.28;;
21862;SDS011;11096;51.338;12.524;2023-05-24T09:23:32;18.83;;;3.55;;
21862;SDS011;11096;51.338;12.524;2023-05-24T09:25:58;14.95;;;3.58;;
21862;SDS011;11096;51.338;12.524;2023-05-24T09:28:31;16.10;;;4.70;;
21862;SDS011;11096;51.338;12.524;2023-05-24T09:30:58;17.75;;;3.47;;
21862;SDS011;11096;51.338;12.524;2023-05-24T09:33:29;19.35;;;3.67;;
21862;SDS011;11096;51.338;12.524;2023-05-24T09:35:59;21.88;;;3.47;;
21862;SDS011;11096;51.338;12.524;2023-05-24T09:38:27;17.92;;;3.35;;
21862;SDS011;11096;51.338;12.524;2023-05-24T09:41:00;16.38;;;3.53;;
21862;SDS011;11096;51.338;12.524;2023-05-24T09:43:26;12.93;;;3.20;;
21862;SDS011;11096;51.338;12.524;2023-05-24T09:45:54;11.52;;;2.58;;
21862;SDS011;11096;51.338;12.524;2023-05-24T09:48:22;15.90;;;3.20;;
21862;SDS011;11096;51.338;12.524;2023-05-24T09:51:06;13.05;;;2.60;;
21862;SDS011;11096;51.338;12.524;2023-05-24T09:53:35;13.52;;;3.28;;
21862;SDS011;11096;51.338;12.524;2023-05-24T09:56:04;11.65;;;2.95;;
21862;SDS011;11096;51.338;12.524;2023-05-24T09:58:32;13.60;;;3.05;;
21862;SDS011;11096;51.338;12.524;2023-05-24T10:01:04;15.05;;;3.28;;
21862;SDS011;11096;51.338;12.524;2023-05-24T10:03:31;11.13;;;3.30;;
21862;SDS011;11096;51.338;12.524;2023-05-24T10:05:57;17.80;;;3.33;;
21862;SDS011;11096;51.338;12.524;2023-05-24T10:08:24;11.55;;;3.10;;
21862;SDS011;11096;51.338;12.524;2023-05-24T10:10:50;12.68;;;3.10;;
21862;SDS011;11096;51.338;12.524;2023-05-24T10:13:16;14.68;;;3.35;;
21862;SDS011;11096;51.338;12.524;2023-05-24T10:15:42;11.95;;;2.97;;
21862;SDS011;11096;51.338;12.524;2023-05-24T10:18:08;13.30;;;2.83;;
21862;SDS011;11096;51.338;12.524;2023-05-24T10:20:34;11.35;;;3.53;;
21862;SDS011;11096;51.338;12.524;2023-05-24T10:23:00;9.10;;;2.83;;
21862;SDS011;11096;51.338;12.524;2023-05-24T10:25:32;16.30;;;3.40;;
21862;SDS011;11096;51.338;12.524;2023-05-24T10:28:03;14.93;;;4.30;;
21862;SDS011;11096;51.338;12.524;2023-05-24T10:30:33;12.07;;;3.42;;
21862;SDS011;11096;51.338;12.524;2023-05-24T10:33:05;14.93;;;3.45;;
21862;SDS011;11096;51.338;12.524;2023-05-24T10:35:32;11.55;;;3.08;;
21862;SDS011;11096;51.338;12.524;2023-05-24T10:38:04;11.60;;;3.20;;
21862;SDS011;11096;51.338;12.524;2023-05-24T10:40:33;20.80;;;3.95;;
21862;SDS011;11096;51.338;12.524;2023-05-24T10:43:02;17.02;;;3.50;;
21862;SDS011;11096;51.338;12.524;2023-05-24T10:45:32;12.98;;;3.53;;
21862;SDS011;11096;51.338;12.524;2023-05-24T10:48:06;12.20;;;3.08;;
21862;SDS011;11096;51.338;12.524;2023-05-24T10:50:38;12.80;;;3.47;;
21862;SDS011;11096;51.338;12.524;2023-05-24T10:53:24;14.88;;;3.20;;
21862;SDS011;11096;51.338;12.524;2023-05-24T10:55:54;13.18;;;3.50;;
21862;SDS011;11096;51.338;12.524;2023-05-24T11:00:56;11.52;;;3.17;;
21862;SDS011;11096;51.338;12.524;2023-05-24T11:03:22;13.95;;;3.20;;
21862;SDS011;11096;51.338;12.524;2023-05-24T11:08:30;16.48;;;3.83;;
21862;SDS011;11096;51.338;12.524;2023-05-24T11:11:06;15.55;;;3.67;;
21862;SDS011;11096;51.338;12.524;2023-05-24T11:13:39;16.58;;;3.97;;
21862;SDS011;11096;51.338;12.524;2023-05-24T11:16:05;15.90;;;4.07;;
21862;SDS011;11096;51.338;12.524;2023-05-24T11:18:31;14.23;;;4.20;;
21862;SDS011;11096;51.338;12.524;2023-05-24T11:21:02;14.50;;;3.70;;
21862;SDS011;11096;51.338;12.524;2023-05-24T11:23:28;11.23;;;3.83;;
21862;SDS011;11096;51.338;12.524;2023-05-24T11:25:55;15.52;;;3.80;;
21862;SDS011;11096;51.338;12.524;2023-05-24T11:28:21;14.93;;;3.70;;
21862;SDS011;11096;51.338;12.524;2023-05-24T11:30:47;16.08;;;4.20;;
21862;SDS011;11096;51.338;12.524;2023-05-24T11:33:22;14.82;;;3.88;;
21862;SDS011;11096;51.338;12.524;2023-05-24T11:35:52;11.50;;;3.13;;
21862;SDS011;11096;51.338;12.524;2023-05-24T11:38:19;14.45;;;3.65;;
21862;SDS011;11096;51.338;12.524;2023-05-24T11:40:46;14.10;;;3.47;;
21862;SDS011;11096;51.338;12.524;2023-05-24T11:43:13;10.45;;;2.97;;
21862;SDS011;11096;51.338;12.524;2023-05-24T11:45:42;11.52;;;3.25;;
21862;SDS011;11096;51.338;12.524;2023-05-24T11:48:13;13.70;;;3.00;;
21862;SDS011;11096;51.338;12.524;2023-05-24T11:50:39;17.88;;;3.30;;
21862;SDS011;11096;51.338;12.524;2023-05-24T11:53:10;11.90;;;3.67;;
21862;SDS011;11096;51.338;12.524;2023-05-24T11:55:36;7.60;;;2.38;;
21862;SDS011;11096;51.338;12.524;2023-05-24T11:58:05;14.10;;;3.33;;
21862;SDS011;11096;51.338;12.524;2023-05-24T12:00:35;9.48;;;3.22;;
21862;SDS011;11096;51.338;12.524;2023-05-24T12:03:02;10.82;;;2.42;;
21862;SDS011;11096;51.338;12.524;2023-05-24T12:05:31;9.85;;;2.63;;
21862;SDS011;11096;51.338;12.524;2023-05-24T12:08:01;9.70;;;2.58;;
21862;SDS011;11096;51.338;12.524;2023-05-24T12:10:31;8.23;;;2.67;;
21862;SDS011;11096;51.338;12.524;2023-05-24T12:12:57;10.77;;;3.10;;
21862;SDS011;11096;51.338;12.524;2023-05-24T12:15:23;12.68;;;2.88;;
21862;SDS011;11096;51.338;12.524;2023-05-24T12:17:48;14.90;;;3.42;;
21862;SDS011;11096;51.338;12.524;2023-05-24T12:20:14;9.90;;;3.17;;
21862;SDS011;11096;51.338;12.524;2023-05-24T12:22:46;9.75;;;2.63;;
21862;SDS011;11096;51.338;12.524;2023-05-24T12:25:15;11.02;;;2.97;;
21862;SDS011;11096;51.338;12.524;2023-05-24T12:27:51;5.80;;;2.50;;
21862;SDS011;11096;51.338;12.524;2023-05-24T12:30:21;16.35;;;4.20;;
21862;SDS011;11096;51.338;12.524;2023-05-24T12:32:47;13.35;;;3.33;;
21862;SDS011;11096;51.338;12.524;2023-05-24T12:35:13;6.90;;;2.70;;
21862;SDS011;11096;51.338;12.524;2023-05-24T12:37:41;10.90;;;3.15;;
21862;SDS011;11096;51.338;12.524;2023-05-24T12:40:17;10.80;;;2.75;;
21862;SDS011;11096;51.338;12.524;2023-05-24T12:42:54;10.13;;;2.42;;
21862;SDS011;11096;51.338;12.524;2023-05-24T12:45:24;9.93;;;2.80;;
21862;SDS011;11096;51.338;12.524;2023-05-24T12:47:53;9.63;;;2.40;;
21862;SDS011;11096;51.338;12.524;2023-05-24T12:50:22;7.00;;;2.20;;
21862;SDS011;11096;51.338;12.524;2023-05-24T12:52:49;9.80;;;2.70;;
21862;SDS011;11096;51.338;12.524;2023-05-24T12:55:18;8.52;;;2.13;;
21862;SDS011;11096;51.338;12.524;2023-05-24T12:57:46;9.90;;;2.38;;
21862;SDS011;11096;51.338;12.524;2023-05-24T13:00:18;12.82;;;2.88;;
21862;SDS011;11096;51.338;12.524;2023-05-24T13:02:48;7.00;;;2.15;;
21862;SDS011;11096;51.338;12.524;2023-05-24T13:05:14;9.02;;;2.15;;
21862;SDS011;11096;51.338;12.524;2023-05-24T13:07:42;9.00;;;1.88;;
21862;SDS011;11096;51.338;12.524;2023-05-24T13:10:08;6.35;;;2.20;;
21862;SDS011;11096;51.338;12.524;2023-05-24T13:12:34;9.90;;;2.22;;
21862;SDS011;11096;51.338;12.524;2023-05-24T13:15:00;6.35;;;2.00;;
21862;SDS011;11096;51.338;12.524;2023-05-24T13:17:25;7.32;;;2.53;;
21862;SDS011;11096;51.338;12.524;2023-05-24T13:19:51;6.38;;;1.70;;
21862;SDS011;11096;51.338;12.524;2023-05-24T13:22:17;7.53;;;2.22;;
21862;SDS011;11096;51.338;12.524;2023-05-24T13:24:42;6.95;;;1.98;;
21862;SDS011;11096;51.338;12.524;2023-05-24T13:27:08;7.18;;;2.20;;
21862;SDS011;11096;51.338;12.524;2023-05-24T13:29:33;8.05;;;2.40;;
21862;SDS011;11096;51.338;12.524;2023-05-24T13:31:59;9.07;;;2.28;;
21862;SDS011;11096;51.338;12.524;2023-05-24T13:34:25;9.63;;;2.72;;
21862;SDS011;11096;51.338;12.524;2023-05-24T13:36:51;5.85;;;2.15;;
21862;SDS011;11096;51.338;12.524;2023-05-24T13:39:20;9.48;;;3.03;;
21862;SDS011;11096;51.338;12.524;2023-05-24T13:41:46;9.82;;;2.67;;
21862;SDS011;11096;51.338;12.524;2023-05-24T13:44:13;8.88;;;2.65;;
21862;SDS011;11096;51.338;12.524;2023-05-24T13:46:40;6.50;;;2.28;;
21862;SDS011;11096;51.338;12.524;2023-05-24T13:49:06;9.43;;;3.10;;
21862;SDS011;11096;51.338;12.524;2023-05-24T13:51:33;8.77;;;3.22;;
21862;SDS011;11096;51.338;12.524;2023-05-24T13:53:58;11.00;;;2.85;;
21862;SDS011;11096;51.338;12.524;2023-05-24T13:56:24;8.57;;;2.47;;
21862;SDS011;11096;51.338;12.524;2023-05-24T13:58:51;14.68;;;3.38;;
21862;SDS011;11096;51.338;12.524;2023-05-24T14:01:17;8.00;;;2.45;;
21862;SDS011;11096;51.338;12.524;2023-05-24T14:03:43;7.68;;;2.58;;
21862;SDS011;11096;51.338;12.524;2023-05-24T14:06:08;8.52;;;2.40;;
21862;SDS011;11096;51.338;12.524;2023-05-24T14:08:34;13.45;;;2.58;;
21862;SDS011;11096;51.338;12.524;2023-05-24T14:11:00;9.57;;;2.63;;
21862;SDS011;11096;51.338;12.524;2023-05-24T14:13:25;9.05;;;2.30;;
21862;SDS011;11096;51.338;12.524;2023-05-24T14:15:51;12.32;;;2.83;;
21862;SDS011;11096;51.338;12.524;2023-05-24T14:18:16;9.20;;;2.72;;
21862;SDS011;11096;51.338;12.524;2023-05-24T14:20:42;9.10;;;2.30;;
21862;SDS011;11096;51.338;12.524;2023-05-24T14:23:07;12.02;;;2.42;;
21862;SDS011;11096;51.338;12.524;2023-05-24T14:25:33;5.75;;;2.45;;
21862;SDS011;11096;51.338;12.524;2023-05-24T14:27:59;11.32;;;2.38;;
21862;SDS011;11096;51.338;12.524;2023-05-24T14:30:25;7.80;;;2.65;;
21862;SDS011;11096;51.338;12.524;2023-05-24T14:32:51;8.27;;;2.45;;
21862;SDS011;11096;51.338;12.524;2023-05-24T14:35:16;6.10;;;1.88;;
21862;SDS011;11096;51.338;12.524;2023-05-24T14:37:42;9.10;;;2.60;;
21862;SDS011;11096;51.338;12.524;2023-05-24T14:40:08;8.45;;;2.58;;
21862;SDS011;11096;51.338;12.524;2023-05-24T14:42:34;8.55;;;2.17;;
21862;SDS011;11096;51.338;12.524;2023-05-24T14:44:59;6.03;;;2.00;;